createdAt,value
2017-04-09T09:26:52.952Z,51.63
2017-04-09T09:31:52.604Z,51.84
2017-04-09T09:36:52.890Z,51.91
2017-04-09T09:41:52.906Z,51.86
2017-04-09T09:46:52.516Z,51.84
2017-04-09T09:51:52.845Z,51.79
2017-04-09T09:56:52.816Z,51.44
2017-04-09T10:01:52.849Z,51.5
2017-04-09T10:06:52.710Z,51.24
2017-04-09T10:11:52.683Z,50.82
2017-04-09T10:16:52.639Z,50.28
2017-04-09T10:21:52.646Z,49.53
2017-04-09T10:26:52.615Z,48.78
2017-04-09T10:31:52.580Z,48.11
2017-04-09T10:36:52.577Z,47.2
2017-04-09T10:41:52.279Z,46.28
2017-04-09T10:46:52.565Z,45.34
2017-04-09T10:51:52.583Z,44.29
2017-04-09T10:56:52.577Z,43.23
2017-04-09T11:01:52.606Z,42.17
2017-04-09T11:06:52.573Z,41.06
2017-04-09T11:11:52.579Z,40.03
2017-04-09T11:16:52.587Z,39.04
2017-04-09T11:21:52.579Z,37.61
2017-04-09T11:26:52.577Z,35.26
2017-04-09T11:31:52.595Z,34.3
2017-04-09T11:36:52.561Z,33.48
2017-04-09T11:41:52.571Z,32.84
2017-04-09T11:46:52.567Z,32.19
2017-04-09T11:51:52.670Z,31.74
2017-04-09T11:56:52.557Z,31.3
2017-04-09T12:01:52.677Z,30.78
2017-04-09T12:06:52.255Z,30.48
2017-04-09T12:11:52.555Z,30.1
2017-04-09T12:16:52.592Z,29.77
2017-04-09T12:21:52.595Z,29.4
2017-04-09T12:26:52.537Z,29.21
2017-04-09T12:31:52.546Z,29.03
2017-04-09T12:36:52.542Z,28.92
2017-04-09T12:41:52.603Z,28.67
2017-04-09T12:46:52.550Z,28.55
2017-04-09T12:51:52.634Z,28.27
2017-04-09T12:56:52.500Z,28.11
2017-04-09T13:01:52.439Z,28.01
2017-04-09T13:06:52.413Z,27.81
2017-04-09T13:11:52.382Z,27.74
2017-04-09T13:16:52.348Z,27.62
2017-04-09T13:21:51.986Z,27.51
2017-04-09T13:26:52.256Z,27.43
2017-04-09T13:31:52.221Z,27.36
2017-04-09T13:36:51.892Z,27.21
2017-04-09T13:41:52.162Z,27.05
2017-04-09T13:46:52.123Z,26.93
2017-04-09T13:51:51.785Z,26.96
2017-04-09T13:56:52.121Z,26.9
2017-04-09T14:01:52.101Z,26.6
2017-04-09T14:06:52.116Z,26.54
2017-04-09T14:11:52.109Z,26.54
2017-04-09T14:16:52.094Z,26.41
2017-04-09T14:21:52.088Z,26.32
2017-04-09T14:26:51.787Z,26.15
2017-04-09T14:31:52.066Z,26.03
2017-04-09T14:36:52.062Z,25.96
2017-04-09T14:41:52.048Z,25.86
2017-04-09T14:46:52.056Z,25.75
2017-04-09T14:51:52.045Z,25.63
2017-04-09T14:56:51.751Z,25.54
2017-04-09T15:01:52.068Z,25.41
2017-04-09T15:06:52.038Z,25.38
2017-04-09T15:11:52.061Z,25.19
2017-04-09T15:16:52.044Z,25.08
2017-04-09T15:21:51.707Z,25.07
2017-04-09T15:26:52.012Z,24.87
2017-04-09T15:31:52.010Z,24.9
2017-04-09T15:36:52.007Z,24.85
2017-04-09T15:41:51.997Z,24.7
2017-04-09T15:46:51.997Z,24.7
2017-04-09T15:51:51.697Z,24.63
2017-04-09T15:56:52.000Z,24.59
2017-04-09T16:01:51.677Z,24.45
2017-04-09T16:06:52.007Z,24.32
2017-04-09T16:11:51.983Z,24.3
2017-04-09T16:16:51.975Z,24.21
2017-04-09T16:21:51.971Z,24.12
2017-04-09T16:26:51.976Z,24.02
2017-04-09T16:31:51.661Z,23.92
2017-04-09T16:36:51.950Z,23.9
2017-04-09T16:41:51.943Z,23.78
2017-04-09T16:46:51.647Z,23.63
2017-04-09T16:51:51.951Z,23.5
2017-04-09T16:56:51.948Z,23.35
2017-04-09T17:01:51.945Z,23.18
2017-04-09T17:06:51.939Z,22.94
2017-04-09T17:11:51.929Z,22.71
2017-04-09T17:16:51.615Z,22.57
2017-04-09T17:21:51.925Z,22.36
2017-04-09T17:26:51.920Z,22.18
2017-04-09T17:31:51.954Z,21.94
2017-04-09T17:36:51.955Z,21.83
2017-04-09T17:41:51.923Z,21.61
2017-04-09T17:46:51.889Z,21.37
2017-04-09T17:51:51.863Z,21.3
2017-04-09T17:56:52.087Z,21.08
